createdAt,value
2018-06-09T00:01:36.966Z,99.90
2018-06-09T00:04:04.205Z,99.90
2018-06-09T00:06:31.435Z,99.90
2018-06-09T00:08:58.660Z,99.90
2018-06-09T00:11:25.889Z,99.90
2018-06-09T00:13:53.101Z,99.90
2018-06-09T00:16:20.329Z,99.90
2018-06-09T00:18:47.550Z,99.90
2018-06-09T00:21:14.766Z,99.90
2018-06-09T00:23:42.032Z,99.90
2018-06-09T00:26:09.260Z,99.90
2018-06-09T00:28:36.472Z,99.90
2018-06-09T00:31:03.684Z,99.90
2018-06-09T00:33:30.909Z,99.90
2018-06-09T00:35:58.139Z,99.90
2018-06-09T00:38:25.361Z,99.90
2018-06-09T00:40:52.607Z,99.90
2018-06-09T00:43:19.845Z,99.90
2018-06-09T00:45:47.107Z,99.90
2018-06-09T00:48:14.341Z,99.90
2018-06-09T00:50:41.552Z,99.90
2018-06-09T00:53:08.776Z,99.90
2018-06-09T00:55:35.987Z,99.90
2018-06-09T00:58:03.226Z,99.90
2018-06-09T01:00:30.441Z,99.90
2018-06-09T01:02:57.661Z,99.90
2018-06-09T01:05:24.884Z,99.90
2018-06-09T01:07:52.104Z,99.90
2018-06-09T01:10:19.330Z,99.90
2018-06-09T01:12:46.534Z,99.90
2018-06-09T01:15:13.737Z,99.90
2018-06-09T01:17:40.934Z,99.90
2018-06-09T01:22:35.465Z,99.90
2018-06-09T01:25:02.698Z,99.90
2018-06-09T01:27:29.930Z,99.90
2018-06-09T01:29:57.145Z,99.90
2018-06-09T01:32:24.348Z,99.90
2018-06-09T01:34:51.554Z,99.90
2018-06-09T01:37:18.769Z,99.90
2018-06-09T01:39:45.976Z,99.90
2018-06-09T01:42:13.182Z,99.90
2018-06-09T01:44:40.405Z,99.90
2018-06-09T01:47:07.615Z,99.90
2018-06-09T01:49:34.832Z,99.90
2018-06-09T01:52:02.042Z,99.90
2018-06-09T01:54:29.284Z,99.90
2018-06-09T01:56:56.480Z,99.90
2018-06-09T01:59:23.688Z,99.90
2018-06-09T02:01:50.884Z,99.90
2018-06-09T02:04:18.084Z,99.90
2018-06-09T02:06:45.273Z,99.90
2018-06-09T02:09:12.485Z,99.90
2018-06-09T02:11:39.689Z,99.90
2018-06-09T02:14:06.912Z,99.90
2018-06-09T02:16:34.130Z,99.90
2018-06-09T02:19:01.344Z,99.90
2018-06-09T02:21:28.553Z,99.90
2018-06-09T02:23:55.789Z,99.90
2018-06-09T02:26:22.993Z,99.90
2018-06-09T02:28:50.193Z,99.90
2018-06-09T02:31:17.389Z,99.90
2018-06-09T02:33:44.601Z,99.90
2018-06-09T02:36:11.805Z,99.90
2018-06-09T02:38:39.021Z,99.90
2018-06-09T02:41:06.242Z,99.90
2018-06-09T02:43:33.474Z,99.90
2018-06-09T02:46:00.682Z,99.90
2018-06-09T02:48:27.880Z,99.90
2018-06-09T02:50:55.090Z,99.90
2018-06-09T02:53:22.294Z,99.90
2018-06-09T02:55:49.505Z,99.90
2018-06-09T02:58:16.708Z,99.90
2018-06-09T03:00:43.921Z,99.90
2018-06-09T03:03:11.185Z,99.90
2018-06-09T03:05:38.414Z,99.90
2018-06-09T03:08:05.615Z,99.90
2018-06-09T03:10:32.826Z,99.90
2018-06-09T03:13:00.433Z,99.90
2018-06-09T03:15:27.654Z,99.90
2018-06-09T03:17:54.892Z,99.90
2018-06-09T03:20:22.107Z,99.90
2018-06-09T03:22:49.313Z,99.90
2018-06-09T03:25:16.522Z,99.90
2018-06-09T03:27:43.728Z,99.90
2018-06-09T03:30:10.949Z,99.90
2018-06-09T03:32:38.736Z,99.90
2018-06-09T03:35:06.730Z,99.90
2018-06-09T03:37:34.584Z,99.90
2018-06-09T03:40:01.830Z,99.90
2018-06-09T03:42:29.237Z,99.90
2018-06-09T03:44:56.487Z,99.90
2018-06-09T03:47:23.685Z,99.90
2018-06-09T03:49:50.904Z,99.90
2018-06-09T03:52:18.112Z,99.90
2018-06-09T03:54:45.482Z,99.90
2018-06-09T03:57:12.694Z,99.90
2018-06-09T03:59:39.901Z,99.90
2018-06-09T04:02:07.109Z,99.90
2018-06-09T04:04:34.305Z,99.90
2018-06-09T04:07:01.518Z,99.90
2018-06-09T04:09:28.716Z,99.90
2018-06-09T04:11:55.941Z,99.90
2018-06-09T04:14:23.141Z,99.90
2018-06-09T04:16:50.356Z,99.90
2018-06-09T04:19:17.712Z,99.90
2018-06-09T04:21:44.978Z,99.90
2018-06-09T04:24:12.172Z,99.90
2018-06-09T04:26:39.382Z,99.90
2018-06-09T04:29:06.590Z,99.90
2018-06-09T04:31:33.818Z,99.90
2018-06-09T04:34:01.329Z,99.90
2018-06-09T04:36:28.522Z,99.90
2018-06-09T04:38:55.716Z,99.90
2018-06-09T04:41:22.929Z,99.90
2018-06-09T04:43:50.134Z,99.90
2018-06-09T04:46:17.337Z,99.90
2018-06-09T04:48:44.545Z,99.90
2018-06-09T04:51:11.787Z,99.90
2018-06-09T04:53:38.992Z,99.90
2018-06-09T04:56:06.504Z,99.90
2018-06-09T04:58:33.728Z,99.90
2018-06-09T05:01:01.216Z,99.90
2018-06-09T05:03:28.579Z,99.90
2018-06-09T05:05:55.811Z,99.90
2018-06-09T05:08:23.078Z,99.90
2018-06-09T05:10:50.286Z,99.90
2018-06-09T05:13:17.533Z,99.90
2018-06-09T05:15:44.851Z,99.90
2018-06-09T05:18:14.013Z,99.90
2018-06-09T05:20:41.229Z,99.90
2018-06-09T05:23:08.438Z,99.90
2018-06-09T05:25:35.712Z,99.90
2018-06-09T05:28:02.964Z,99.90
2018-06-09T05:30:30.159Z,99.90
2018-06-09T05:32:57.401Z,99.90
2018-06-09T05:35:24.660Z,99.90
2018-06-09T05:37:51.878Z,99.90
2018-06-09T05:40:19.111Z,99.90
2018-06-09T05:42:46.349Z,99.90
2018-06-09T05:45:13.553Z,99.90
2018-06-09T05:47:40.764Z,99.90
2018-06-09T05:50:08.007Z,99.90
2018-06-09T05:52:35.228Z,99.90
2018-06-09T05:55:02.472Z,99.90
2018-06-09T05:57:29.694Z,99.90
2018-06-09T05:59:57.004Z,99.90
2018-06-09T06:02:24.253Z,99.90
2018-06-09T06:04:51.673Z,99.90
2018-06-09T06:07:18.901Z,99.90
2018-06-09T06:09:46.132Z,99.90
2018-06-09T06:14:40.799Z,99.90
2018-06-09T06:17:08.005Z,99.90
2018-06-09T06:19:35.213Z,99.90
2018-06-09T06:22:02.483Z,99.90
2018-06-09T06:24:29.734Z,99.90
2018-06-09T06:26:56.934Z,99.90
2018-06-09T06:29:24.136Z,99.90
2018-06-09T06:31:51.357Z,99.90
2018-06-09T06:34:18.545Z,99.90
2018-06-09T06:36:45.762Z,99.90
2018-06-09T06:39:12.980Z,99.90
2018-06-09T06:41:40.197Z,99.90
2018-06-09T06:44:07.460Z,99.90
2018-06-09T06:46:39.256Z,99.90
2018-06-09T06:49:06.586Z,99.90
2018-06-09T06:51:33.849Z,99.90
2018-06-09T06:54:01.128Z,99.90
2018-06-09T06:56:28.330Z,99.90
2018-06-09T06:58:55.532Z,99.90
2018-06-09T07:01:22.741Z,99.90
2018-06-09T07:03:49.932Z,99.90
2018-06-09T07:06:17.179Z,99.90
2018-06-09T07:08:44.385Z,99.90
2018-06-09T07:11:11.608Z,99.90
2018-06-09T07:13:38.814Z,99.90
2018-06-09T07:16:06.025Z,99.90
2018-06-09T07:18:33.232Z,99.90
2018-06-09T07:21:00.432Z,99.90
2018-06-09T07:23:27.628Z,99.90
2018-06-09T07:25:54.893Z,99.90
2018-06-09T07:28:22.095Z,99.90
2018-06-09T07:30:49.313Z,99.90
2018-06-09T07:33:16.553Z,99.90
2018-06-09T07:35:43.767Z,99.90
2018-06-09T07:38:10.970Z,99.90
2018-06-09T07:40:38.232Z,99.90
2018-06-09T07:43:05.436Z,99.90
2018-06-09T07:45:32.644Z,99.90
2018-06-09T07:47:59.894Z,99.90
2018-06-09T07:50:28.744Z,99.90
2018-06-09T07:52:55.976Z,99.90
2018-06-09T07:55:23.268Z,99.90
2018-06-09T07:57:50.452Z,99.90
2018-06-09T08:00:17.659Z,99.90
2018-06-09T08:02:44.853Z,99.90
2018-06-09T08:05:12.073Z,99.90
2018-06-09T08:07:39.289Z,99.90
2018-06-09T08:10:06.528Z,99.90
2018-06-09T08:12:33.736Z,99.90
2018-06-09T08:15:00.961Z,99.90
2018-06-09T08:17:28.175Z,99.90
2018-06-09T08:19:55.379Z,99.90
2018-06-09T08:22:22.600Z,99.90
2018-06-09T08:24:49.801Z,99.90
2018-06-09T08:27:17.021Z,99.90
2018-06-09T08:29:44.218Z,99.90
2018-06-09T08:34:38.768Z,99.90
2018-06-09T08:37:06.017Z,99.90
2018-06-09T08:39:33.212Z,99.90
2018-06-09T08:42:00.469Z,99.90
2018-06-09T08:44:27.637Z,99.90
2018-06-09T08:46:55.489Z,99.90
2018-06-09T08:49:22.696Z,99.90
2018-06-09T08:51:49.905Z,99.90
2018-06-09T08:56:44.361Z,99.90
2018-06-09T08:59:11.563Z,99.90
2018-06-09T09:01:38.782Z,99.90
2018-06-09T09:04:05.994Z,99.90
2018-06-09T09:06:33.209Z,99.90
2018-06-09T09:09:00.437Z,99.90
2018-06-09T09:11:27.659Z,99.90
2018-06-09T09:13:54.881Z,99.90
2018-06-09T09:16:22.084Z,99.90
2018-06-09T09:18:49.300Z,99.90
2018-06-09T09:21:16.589Z,99.90
2018-06-09T09:23:43.808Z,99.90
2018-06-09T09:26:11.042Z,99.90
2018-06-09T09:28:38.257Z,99.90
2018-06-09T09:31:05.668Z,99.90
2018-06-09T09:33:32.872Z,99.90
2018-06-09T09:36:00.075Z,99.90
2018-06-09T09:38:27.284Z,99.90
2018-06-09T09:40:54.501Z,99.90
2018-06-09T09:43:21.908Z,99.90
2018-06-09T09:45:49.117Z,99.90
2018-06-09T09:48:16.337Z,99.90
2018-06-09T09:50:43.552Z,99.90
2018-06-09T09:53:10.769Z,99.90
2018-06-09T09:55:37.980Z,99.90
2018-06-09T09:58:05.223Z,99.90
2018-06-09T10:00:36.373Z,99.90
2018-06-09T10:03:03.732Z,99.90
2018-06-09T10:05:30.970Z,99.90
2018-06-09T10:07:58.181Z,99.90
2018-06-09T10:10:25.416Z,99.90
2018-06-09T10:12:52.620Z,99.90
2018-06-09T10:15:19.837Z,99.90
2018-06-09T10:17:47.080Z,99.90
2018-06-09T10:20:14.301Z,99.40
2018-06-09T10:22:41.505Z,99.90
2018-06-09T10:25:08.725Z,99.20
2018-06-09T10:27:35.924Z,96.70
2018-06-09T10:30:03.212Z,98.70
2018-06-09T10:32:30.417Z,99.90
2018-06-09T10:34:57.629Z,98.10
2018-06-09T10:37:24.865Z,99.90
2018-06-09T10:39:52.068Z,98.10
2018-06-09T10:42:19.277Z,96.10
2018-06-09T10:44:46.494Z,96.70
2018-06-09T10:47:13.705Z,95.70
2018-06-09T10:49:40.912Z,95.70
2018-06-09T10:52:08.131Z,94.30
2018-06-09T10:54:35.336Z,92.60
2018-06-09T10:57:02.593Z,91.70
2018-06-09T10:59:29.849Z,89.70
2018-06-09T11:01:57.056Z,86.80
2018-06-09T11:04:24.290Z,88.20
2018-06-09T11:06:51.510Z,89.10
2018-06-09T11:09:18.719Z,87.20
2018-06-09T11:11:45.941Z,90.10
2018-06-09T11:14:13.145Z,91.20
2018-06-09T11:16:40.389Z,93.30
2018-06-09T11:19:07.582Z,92.70
2018-06-09T11:21:34.786Z,96.00
2018-06-09T11:24:01.998Z,95.30
2018-06-09T11:26:29.205Z,96.10
2018-06-09T11:28:56.388Z,93.40
2018-06-09T11:31:23.605Z,92.80
2018-06-09T11:33:50.804Z,93.20
2018-06-09T11:38:45.240Z,92.60
2018-06-09T11:41:12.460Z,90.70
2018-06-09T11:43:39.672Z,91.90
2018-06-09T11:46:06.909Z,92.60
2018-06-09T11:48:34.109Z,93.50
2018-06-09T11:51:01.352Z,95.00
2018-06-09T11:53:28.560Z,98.30
2018-06-09T11:55:55.774Z,99.90
2018-06-09T11:58:22.992Z,99.90
2018-06-09T12:00:50.202Z,99.90
2018-06-09T12:03:17.440Z,99.90
2018-06-09T12:05:44.658Z,99.10
2018-06-09T12:08:11.873Z,98.90
2018-06-09T12:10:39.076Z,97.40
2018-06-09T12:13:06.292Z,95.80
2018-06-09T12:18:00.712Z,91.30
2018-06-09T12:20:27.932Z,94.60
2018-06-09T12:22:55.160Z,95.90
2018-06-09T12:27:49.564Z,99.60
2018-06-09T12:30:16.793Z,99.90
2018-06-09T12:32:44.012Z,97.20
2018-06-09T12:35:11.212Z,94.60
2018-06-09T12:37:38.440Z,95.30
2018-06-09T12:42:32.871Z,97.90
2018-06-09T12:45:00.095Z,99.90
2018-06-09T12:47:27.311Z,99.90
2018-06-09T12:49:54.530Z,99.90
2018-06-09T12:52:21.760Z,99.90
2018-06-09T12:54:48.994Z,99.90
2018-06-09T12:57:16.196Z,99.90
2018-06-09T12:59:43.413Z,99.40
2018-06-09T13:02:10.693Z,97.10
2018-06-09T13:04:37.909Z,95.10
2018-06-09T13:07:05.489Z,94.10
2018-06-09T13:09:32.704Z,93.60
2018-06-09T13:11:59.928Z,93.50
2018-06-09T13:14:27.129Z,93.40
2018-06-09T13:16:55.034Z,93.60
2018-06-09T13:19:22.269Z,93.50
2018-06-09T13:21:49.484Z,93.30
2018-06-09T13:24:16.690Z,94.90
2018-06-09T13:26:43.922Z,91.70
2018-06-09T13:29:11.129Z,93.90
2018-06-09T13:31:38.345Z,93.40
2018-06-09T13:36:32.772Z,92.90
2018-06-09T13:38:59.986Z,90.10
2018-06-09T13:41:27.231Z,88.60
2018-06-09T13:43:54.445Z,89.90
2018-06-09T13:46:21.689Z,91.50
2018-06-09T13:48:48.911Z,92.00
2018-06-09T13:51:16.121Z,90.50
2018-06-09T13:53:43.336Z,91.30
2018-06-09T13:56:10.569Z,91.90
2018-06-09T13:58:37.791Z,90.20
2018-06-09T14:01:05.167Z,88.50
2018-06-09T14:03:32.371Z,90.90
2018-06-09T14:05:59.580Z,91.90
2018-06-09T14:08:26.797Z,90.80
2018-06-09T14:10:54.021Z,93.50
2018-06-09T14:13:21.261Z,94.40
2018-06-09T14:18:15.683Z,95.30
2018-06-09T14:20:42.887Z,96.50
2018-06-09T14:23:10.100Z,98.70
2018-06-09T14:25:37.320Z,99.40
2018-06-09T14:28:04.536Z,99.90
2018-06-09T14:32:58.970Z,99.90
2018-06-09T14:35:26.241Z,99.90
2018-06-09T14:37:53.440Z,99.90
2018-06-09T14:40:20.888Z,99.90
2018-06-09T14:42:48.093Z,99.90
2018-06-09T14:45:15.309Z,99.90
2018-06-09T14:47:42.533Z,99.90
2018-06-09T14:50:09.740Z,99.90
2018-06-09T14:52:36.980Z,99.90
2018-06-09T14:55:04.211Z,99.90
2018-06-09T14:57:31.552Z,99.90
2018-06-09T14:59:58.772Z,99.90
2018-06-09T15:04:53.252Z,99.90
2018-06-09T15:07:20.470Z,99.90
2018-06-09T15:09:47.753Z,99.90
2018-06-09T15:12:14.968Z,99.90
2018-06-09T15:14:42.176Z,99.90
2018-06-09T15:17:09.385Z,99.90
2018-06-09T15:19:36.624Z,99.90
2018-06-09T15:22:03.805Z,99.90
2018-06-09T15:24:31.022Z,99.90
2018-06-09T15:26:58.226Z,99.90
2018-06-09T15:29:25.437Z,99.90
2018-06-09T15:34:19.869Z,99.90
2018-06-09T15:36:47.273Z,99.90
2018-06-09T15:39:14.520Z,99.90
2018-06-09T15:41:41.769Z,99.90
2018-06-09T15:44:08.985Z,99.90
2018-06-09T15:46:36.234Z,99.90
2018-06-09T15:49:03.433Z,99.90
2018-06-09T15:53:57.861Z,99.90
2018-06-09T15:56:25.177Z,99.90
2018-06-09T15:58:52.389Z,99.90
2018-06-09T16:01:19.604Z,99.90
2018-06-09T16:03:46.838Z,99.90
2018-06-09T16:06:14.067Z,99.90
2018-06-09T16:08:41.308Z,99.90
2018-06-09T16:11:08.536Z,99.90
2018-06-09T16:13:35.809Z,99.90
2018-06-09T16:16:03.030Z,99.90
2018-06-09T16:18:30.237Z,99.90
2018-06-09T16:20:57.436Z,99.90
2018-06-09T16:23:24.632Z,99.90
2018-06-09T16:25:51.834Z,99.90
2018-06-09T16:28:19.041Z,99.90
2018-06-09T16:30:46.264Z,99.90
2018-06-09T16:33:13.478Z,99.90
2018-06-09T16:35:40.902Z,99.90
2018-06-09T16:38:08.097Z,99.90
2018-06-09T16:40:35.306Z,99.90
2018-06-09T16:43:02.501Z,99.90
2018-06-09T16:45:29.732Z,99.90
2018-06-09T16:47:56.945Z,99.90
2018-06-09T16:50:26.282Z,99.90
2018-06-09T16:52:53.492Z,99.90
2018-06-09T16:55:20.700Z,99.90
2018-06-09T16:57:47.908Z,99.90
2018-06-09T17:00:15.113Z,99.90
2018-06-09T17:02:42.321Z,99.90
2018-06-09T17:05:09.526Z,99.90
2018-06-09T17:07:36.732Z,99.90
2018-06-09T17:12:31.162Z,99.90
2018-06-09T17:14:58.436Z,99.90
2018-06-09T17:17:25.636Z,99.90
2018-06-09T17:19:52.845Z,99.90
2018-06-09T17:22:20.062Z,99.90
2018-06-09T17:24:47.261Z,99.90
2018-06-09T17:27:14.468Z,99.90
2018-06-09T17:29:41.673Z,99.90
2018-06-09T17:32:08.880Z,99.90
2018-06-09T17:34:36.071Z,99.90
2018-06-09T17:37:03.301Z,99.90
2018-06-09T17:39:30.505Z,99.90
2018-06-09T17:41:57.696Z,99.90
2018-06-09T17:44:24.880Z,99.90
2018-06-09T17:46:52.096Z,99.90
2018-06-09T17:49:19.291Z,99.90
2018-06-09T17:51:46.615Z,99.90
2018-06-09T17:54:13.837Z,99.90
2018-06-09T17:56:41.037Z,99.90
2018-06-09T17:59:08.257Z,99.90
2018-06-09T18:01:35.469Z,99.90
2018-06-09T18:04:13.800Z,99.90
2018-06-09T18:06:41.024Z,99.90
2018-06-09T18:09:08.281Z,99.90
2018-06-09T18:11:35.624Z,99.90
2018-06-09T18:14:02.901Z,99.90
2018-06-09T18:16:30.108Z,99.90
2018-06-09T18:18:57.319Z,99.90
2018-06-09T18:21:24.513Z,99.90
2018-06-09T18:23:51.710Z,99.90
2018-06-09T18:26:18.907Z,99.90
2018-06-09T18:28:46.133Z,99.90
2018-06-09T18:31:14.130Z,99.90
2018-06-09T18:33:41.384Z,99.90
2018-06-09T18:36:08.548Z,99.90
2018-06-09T18:38:35.780Z,99.90
2018-06-09T18:41:02.995Z,99.90
2018-06-09T18:43:30.275Z,99.90
2018-06-09T18:45:57.488Z,99.90
2018-06-09T18:48:24.694Z,99.90
2018-06-09T18:50:51.900Z,99.90
2018-06-09T18:53:19.109Z,99.90
2018-06-09T18:55:46.313Z,99.90
2018-06-09T18:58:13.525Z,99.90
2018-06-09T19:00:40.729Z,99.90
2018-06-09T19:03:07.941Z,99.90
2018-06-09T19:05:35.151Z,99.90
2018-06-09T19:08:02.373Z,99.90
2018-06-09T19:10:30.054Z,99.90
2018-06-09T19:12:57.284Z,99.90
2018-06-09T19:15:24.573Z,99.90
2018-06-09T19:17:51.790Z,99.90
2018-06-09T19:20:19.066Z,99.90
2018-06-09T19:22:46.690Z,99.90
2018-06-09T19:25:13.901Z,99.90
2018-06-09T19:27:41.121Z,99.90
2018-06-09T19:30:08.321Z,99.90
2018-06-09T19:32:35.509Z,99.90
2018-06-09T19:35:02.825Z,99.90
2018-06-09T19:37:30.101Z,99.90
2018-06-09T19:39:57.325Z,99.90
2018-06-09T19:42:24.580Z,99.90
2018-06-09T19:44:51.884Z,99.90
2018-06-09T19:47:19.418Z,99.90
2018-06-09T19:49:46.635Z,99.90
2018-06-09T19:52:13.845Z,99.90
2018-06-09T19:54:41.057Z,99.90
2018-06-09T19:57:08.270Z,99.90
2018-06-09T19:59:35.481Z,99.90
2018-06-09T20:02:02.744Z,99.90
2018-06-09T20:04:29.961Z,99.90
2018-06-09T20:06:57.163Z,99.90
2018-06-09T20:09:24.372Z,99.90
2018-06-09T20:11:51.574Z,99.90
2018-06-09T20:16:46.020Z,99.90
2018-06-09T20:19:13.294Z,99.90
2018-06-09T20:21:40.505Z,99.90
2018-06-09T20:24:07.722Z,99.90
2018-06-09T20:26:34.936Z,99.90
2018-06-09T20:29:02.145Z,99.90
2018-06-09T20:31:29.401Z,99.90
2018-06-09T20:33:57.717Z,99.90
2018-06-09T20:36:24.926Z,99.90
2018-06-09T20:38:52.133Z,99.90
2018-06-09T20:41:19.342Z,99.90
2018-06-09T20:43:46.590Z,99.90
2018-06-09T20:46:13.842Z,99.90
2018-06-09T20:48:41.081Z,99.90
2018-06-09T20:51:08.313Z,99.90
2018-06-09T20:53:35.537Z,99.90
2018-06-09T20:56:02.825Z,99.90
2018-06-09T20:58:35.853Z,99.90
2018-06-09T21:01:03.110Z,99.90
2018-06-09T21:03:30.302Z,99.90
2018-06-09T21:05:57.593Z,99.90
2018-06-09T21:08:24.730Z,99.90
2018-06-09T21:10:51.950Z,99.90
2018-06-09T21:13:19.255Z,99.90
2018-06-09T21:15:46.448Z,99.90
2018-06-09T21:18:13.661Z,99.90
2018-06-09T21:20:40.885Z,99.90
2018-06-09T21:23:08.091Z,99.90
2018-06-09T21:25:35.301Z,99.90
2018-06-09T21:28:08.287Z,99.90
2018-06-09T21:30:41.919Z,99.90
2018-06-09T21:34:34.830Z,99.90
2018-06-09T21:37:07.685Z,99.90
2018-06-09T21:39:40.702Z,99.90
2018-06-09T21:42:13.622Z,99.90
2018-06-09T21:44:46.864Z,99.90
2018-06-09T21:47:14.926Z,99.90
2018-06-09T21:49:42.286Z,99.90
2018-06-09T21:52:09.498Z,99.90
2018-06-09T21:54:36.837Z,99.90
2018-06-09T21:57:04.148Z,99.90
2018-06-09T21:59:31.389Z,99.90
2018-06-09T22:02:00.457Z,99.90
2018-06-09T22:04:27.956Z,99.90
2018-06-09T22:06:55.167Z,99.90
2018-06-09T22:09:22.369Z,99.90
2018-06-09T22:11:49.564Z,99.90
2018-06-09T22:14:16.793Z,99.90
2018-06-09T22:16:44.140Z,99.90
2018-06-09T22:19:11.429Z,99.90
2018-06-09T22:21:38.654Z,99.90
2018-06-09T22:24:05.876Z,99.90
2018-06-09T22:26:33.104Z,99.90
2018-06-09T22:29:00.356Z,99.90
2018-06-09T22:31:27.559Z,99.90
2018-06-09T22:33:54.763Z,99.90
2018-06-09T22:36:21.983Z,99.90
2018-06-09T22:38:49.242Z,99.90
2018-06-09T22:41:16.473Z,99.90
2018-06-09T22:43:43.705Z,99.90
2018-06-09T22:46:10.971Z,99.90
2018-06-09T22:51:05.494Z,99.90
2018-06-09T22:53:44.968Z,99.90
2018-06-09T22:56:12.646Z,99.90
2018-06-09T22:58:39.852Z,99.90
2018-06-09T23:01:07.086Z,99.90
2018-06-09T23:03:34.298Z,99.90
2018-06-09T23:06:01.514Z,99.90
2018-06-09T23:08:28.716Z,99.90
2018-06-09T23:10:55.929Z,99.90
2018-06-09T23:13:23.169Z,99.90
2018-06-09T23:15:50.378Z,99.90
2018-06-09T23:18:17.582Z,99.90
2018-06-09T23:20:44.787Z,99.90
2018-06-09T23:23:12.061Z,99.90
2018-06-09T23:25:39.274Z,99.90
2018-06-09T23:28:06.474Z,99.90
2018-06-09T23:30:33.739Z,99.90
2018-06-09T23:33:00.910Z,99.90
2018-06-09T23:35:28.120Z,99.90
2018-06-09T23:37:55.325Z,99.90
2018-06-09T23:40:22.541Z,99.90
2018-06-09T23:42:49.747Z,99.90
2018-06-09T23:45:16.952Z,99.90
2018-06-09T23:47:44.201Z,99.90
2018-06-09T23:50:11.421Z,99.90
2018-06-09T23:52:38.629Z,99.90
2018-06-09T23:55:05.848Z,99.90
2018-06-09T23:57:33.055Z,99.90
